sensor_id;sensor_type;location;lat;lon;timestamp;P1;durP1;ratioP1;P2;durP2;ratioP2
31348;SDS011;17976;48.480;11.946;2023-09-08T17:24:37;1101.13;;;987.25;;
31348;SDS011;17976;48.480;11.946;2023-09-08T17:27:03;231.73;;;213.32;;
31348;SDS011;17976;48.480;11.946;2023-09-08T17:29:29;9.35;;;7.72;;
31348;SDS011;17976;48.480;11.946;2023-09-08T17:31:56;8.05;;;4.70;;
31348;SDS011;17976;48.480;11.946;2023-09-08T17:34:23;9.18;;;5.97;;
31348;SDS011;17976;48.480;11.946;2023-09-08T17:36:53;13.18;;;6.30;;
31348;SDS011;17976;48.480;11.946;2023-09-08T17:39:20;8.73;;;5.40;;
31348;SDS011;17976;48.480;11.946;2023-09-08T17:41:46;6.95;;;5.38;;
31348;SDS011;17976;48.480;11.946;2023-09-08T17:44:15;7.30;;;5.38;;
31348;SDS011;17976;48.480;11.946;2023-09-08T17:46:41;10.48;;;4.95;;
31348;SDS011;17976;48.480;11.946;2023-09-08T17:49:07;9.80;;;5.43;;
31348;SDS011;17976;48.480;11.946;2023-09-08T17:51:33;6.57;;;5.05;;
31348;SDS011;17976;48.480;11.946;2023-09-08T17:53:59;9.20;;;4.75;;
31348;SDS011;17976;48.480;11.946;2023-09-08T17:56:25;8.95;;;5.70;;
31348;SDS011;17976;48.480;11.946;2023-09-08T17:58:51;9.63;;;5.20;;
31348;SDS011;17976;48.480;11.946;2023-09-08T18:01:17;9.07;;;5.70;;
31348;SDS011;17976;48.480;11.946;2023-09-08T18:03:46;9.27;;;6.13;;
31348;SDS011;17976;48.480;11.946;2023-09-08T18:06:13;8.57;;;6.15;;
31348;SDS011;17976;48.480;11.946;2023-09-08T18:08:39;8.23;;;5.70;;
31348;SDS011;17976;48.480;11.946;2023-09-08T18:11:05;10.95;;;5.38;;
31348;SDS011;17976;48.480;11.946;2023-09-08T18:13:31;8.98;;;5.30;;
31348;SDS011;17976;48.480;11.946;2023-09-08T18:16:00;10.50;;;5.28;;
31348;SDS011;17976;48.480;11.946;2023-09-08T18:18:27;7.18;;;4.72;;
31348;SDS011;17976;48.480;11.946;2023-09-08T18:20:53;6.40;;;4.32;;
31348;SDS011;17976;48.480;11.946;2023-09-08T18:23:19;6.85;;;5.07;;
31348;SDS011;17976;48.480;11.946;2023-09-08T18:25:45;8.07;;;5.53;;
31348;SDS011;17976;48.480;11.946;2023-09-08T18:28:14;13.23;;;6.03;;
31348;SDS011;17976;48.480;11.946;2023-09-08T18:30:41;9.85;;;5.93;;
31348;SDS011;17976;48.480;11.946;2023-09-08T18:33:07;8.88;;;5.63;;
31348;SDS011;17976;48.480;11.946;2023-09-08T18:35:33;11.43;;;5.55;;
31348;SDS011;17976;48.480;11.946;2023-09-08T18:37:59;14.40;;;5.20;;
31348;SDS011;17976;48.480;11.946;2023-09-08T18:40:25;12.48;;;5.10;;
31348;SDS011;17976;48.480;11.946;2023-09-08T18:42:51;9.57;;;5.13;;
31348;SDS011;17976;48.480;11.946;2023-09-08T18:45:17;7.85;;;5.00;;
31348;SDS011;17976;48.480;11.946;2023-09-08T18:47:43;7.60;;;4.80;;
31348;SDS011;17976;48.480;11.946;2023-09-08T18:50:10;8.43;;;4.80;;
31348;SDS011;17976;48.480;11.946;2023-09-08T18:52:36;14.43;;;5.60;;
31348;SDS011;17976;48.480;11.946;2023-09-08T18:55:02;7.82;;;4.95;;
31348;SDS011;17976;48.480;11.946;2023-09-08T18:57:28;10.32;;;5.45;;
31348;SDS011;17976;48.480;11.946;2023-09-08T18:59:55;11.75;;;5.68;;
31348;SDS011;17976;48.480;11.946;2023-09-08T19:02:21;8.52;;;5.22;;
31348;SDS011;17976;48.480;11.946;2023-09-08T19:04:48;10.20;;;5.50;;
31348;SDS011;17976;48.480;11.946;2023-09-08T19:07:15;11.68;;;5.43;;
31348;SDS011;17976;48.480;11.946;2023-09-08T19:09:41;8.10;;;5.50;;
31348;SDS011;17976;48.480;11.946;2023-09-08T19:12:07;9.75;;;5.43;;
31348;SDS011;17976;48.480;11.946;2023-09-08T19:14:33;10.30;;;5.75;;
31348;SDS011;17976;48.480;11.946;2023-09-08T19:16:59;6.75;;;4.88;;
31348;SDS011;17976;48.480;11.946;2023-09-08T19:19:25;6.55;;;5.15;;
31348;SDS011;17976;48.480;11.946;2023-09-08T19:21:52;10.40;;;5.45;;
31348;SDS011;17976;48.480;11.946;2023-09-08T19:24:18;7.35;;;5.30;;
31348;SDS011;17976;48.480;11.946;2023-09-08T19:26:44;8.98;;;5.65;;
31348;SDS011;17976;48.480;11.946;2023-09-08T19:29:10;8.13;;;5.57;;
31348;SDS011;17976;48.480;11.946;2023-09-08T19:31:36;10.90;;;6.18;;
31348;SDS011;17976;48.480;11.946;2023-09-08T19:34:02;10.90;;;5.78;;
31348;SDS011;17976;48.480;11.946;2023-09-08T19:36:28;8.40;;;5.53;;
31348;SDS011;17976;48.480;11.946;2023-09-08T19:38:54;9.48;;;5.45;;
31348;SDS011;17976;48.480;11.946;2023-09-08T19:41:19;11.13;;;6.05;;
31348;SDS011;17976;48.480;11.946;2023-09-08T19:43:49;8.00;;;5.10;;
31348;SDS011;17976;48.480;11.946;2023-09-08T19:46:15;8.70;;;5.47;;
31348;SDS011;17976;48.480;11.946;2023-09-08T19:48:41;9.05;;;5.07;;
31348;SDS011;17976;48.480;11.946;2023-09-08T19:51:07;7.32;;;5.72;;
31348;SDS011;17976;48.480;11.946;2023-09-08T19:53:34;11.88;;;6.28;;
31348;SDS011;17976;48.480;11.946;2023-09-08T19:56:00;7.57;;;6.05;;
31348;SDS011;17976;48.480;11.946;2023-09-08T19:58:26;9.88;;;6.72;;
